San Isidro, Argentina
Current Conditions -  °F | °C
As of 5:00 PM on Thursday 20 Nov 2014 (Local Time) from SANT Reporting Station
Drizzle Drizzle  
Wind Chill: 68°   Ceiling: 3500
Heat Index: 68°   Visibility: 1.8mi
Dew Point: 66°   Wind: 7mph
Humidity: 94%   Direction: 90°E
Pressure: 29.85"   Gusts: NA
Location:  28.45°S, 65.73°W
Report Text: SANT 202000Z 09006KT 3000 -DZBR SCT004SCT008 OVC035 20/19 Q1011
Loading
Personal Weather Stations






























Interactive Weather Map New forecast layout! Learn more

10-Day Weather Forecast

Advertisements
Track Severe Weather on mobile